createdAt,value
2019-05-07T00:01:27.280Z,70.47
2019-05-07T00:04:52.150Z,68.11
2019-05-07T00:08:15.537Z,70.01
2019-05-07T00:11:38.598Z,70.25
2019-05-07T00:15:04.460Z,71.06
2019-05-07T00:18:26.925Z,70.62
2019-05-07T00:21:50.001Z,70.64
2019-05-07T00:25:13.148Z,70.59
2019-05-07T00:28:36.130Z,71.32
2019-05-07T00:31:59.256Z,69.74
2019-05-07T00:35:26.045Z,69.88
2019-05-07T00:38:53.815Z,70.39
2019-05-07T00:42:36.499Z,71.43
2019-05-07T00:46:03.661Z,71.28
2019-05-07T00:49:28.027Z,70.83
2019-05-07T00:52:52.406Z,71.22
2019-05-07T00:56:15.651Z,71.58
2019-05-07T00:59:38.673Z,72.29
2019-05-07T01:03:03.035Z,71.80
2019-05-07T01:06:26.948Z,71.71
2019-05-07T01:09:52.203Z,71.95
2019-05-07T01:13:15.195Z,72.08
2019-05-07T01:16:38.210Z,72.10
2019-05-07T01:20:02.957Z,72.27
2019-05-07T01:23:26.156Z,72.12
2019-05-07T01:26:49.186Z,71.66
2019-05-07T01:30:13.982Z,70.80
2019-05-07T01:33:44.139Z,71.67
2019-05-07T01:37:07.117Z,72.42
2019-05-07T01:40:32.269Z,72.87
2019-05-07T01:43:55.010Z,72.45
2019-05-07T01:47:18.998Z,73.27
2019-05-07T01:50:42.967Z,73.44
2019-05-07T01:54:06.519Z,73.61
2019-05-07T01:57:29.964Z,73.47
2019-05-07T02:00:53.286Z,73.86
2019-05-07T02:04:35.936Z,74.19
2019-05-07T02:08:03.504Z,73.55
2019-05-07T02:11:32.786Z,74.02
2019-05-07T02:14:55.941Z,74.00
2019-05-07T02:18:18.903Z,74.72
2019-05-07T02:21:42.474Z,74.87
2019-05-07T02:25:06.550Z,74.85
2019-05-07T02:28:32.922Z,74.91
2019-05-07T02:31:56.222Z,75.32
2019-05-07T02:35:19.457Z,75.41
2019-05-07T02:38:53.118Z,75.64
2019-05-07T02:42:16.131Z,75.37
2019-05-07T02:45:53.586Z,75.42
2019-05-07T02:49:35.634Z,75.50
2019-05-07T02:53:25.735Z,75.20
2019-05-07T02:56:48.716Z,76.09
2019-05-07T03:00:14.663Z,75.97
2019-05-07T03:03:36.937Z,75.74
2019-05-07T03:06:59.890Z,75.97
2019-05-07T03:10:23.931Z,75.96
2019-05-07T03:13:47.453Z,76.25
2019-05-07T03:17:13.288Z,76.18
2019-05-07T03:20:47.800Z,76.33
2019-05-07T03:24:18.398Z,76.19
2019-05-07T03:27:43.100Z,76.54
2019-05-07T03:31:16.687Z,76.79
2019-05-07T03:34:58.269Z,76.29
2019-05-07T03:38:22.909Z,76.43
2019-05-07T03:41:46.259Z,76.57
2019-05-07T03:45:28.978Z,76.53
2019-05-07T03:48:53.115Z,76.56
2019-05-07T03:52:16.446Z,76.89
2019-05-07T03:55:39.427Z,76.82
2019-05-07T03:59:03.578Z,77.07
2019-05-07T04:02:26.711Z,76.99
2019-05-07T04:05:52.777Z,77.19
2019-05-07T04:09:14.945Z,77.00
2019-05-07T04:12:38.017Z,76.95
2019-05-07T04:16:03.854Z,77.61
2019-05-07T04:19:26.291Z,77.06
2019-05-07T04:22:49.543Z,76.66
2019-05-07T04:26:33.983Z,77.00
2019-05-07T04:29:57.982Z,77.19
2019-05-07T04:33:23.815Z,77.30
2019-05-07T04:36:48.529Z,77.08
2019-05-07T04:40:13.508Z,76.94
2019-05-07T04:43:36.585Z,77.15
2019-05-07T04:47:00.057Z,76.68
2019-05-07T04:50:41.428Z,76.64
2019-05-07T04:53:54.050Z,76.57
2019-05-07T04:57:34.364Z,77.23
2019-05-07T05:00:57.892Z,76.89
2019-05-07T05:04:33.511Z,76.40
2019-05-07T05:07:54.527Z,76.41
2019-05-07T05:11:17.971Z,76.21
2019-05-07T05:14:43.658Z,75.48
2019-05-07T05:18:06.500Z,75.62
2019-05-07T05:21:56.975Z,75.32
2019-05-07T05:25:27.992Z,75.05
2019-05-07T05:28:52.552Z,75.79
2019-05-07T05:32:15.867Z,75.45
2019-05-07T05:35:39.006Z,75.39
2019-05-07T05:39:02.609Z,74.41
2019-05-07T05:42:34.451Z,72.75
2019-05-07T05:45:59.756Z,72.02
2019-05-07T05:49:23.085Z,70.24
2019-05-07T05:52:52.117Z,69.62
2019-05-07T05:56:22.848Z,68.87
2019-05-07T05:59:55.499Z,67.49
2019-05-07T06:03:36.396Z,65.58
2019-05-07T06:07:22.736Z,65.97
2019-05-07T06:11:02.255Z,66.82
2019-05-07T06:14:35.422Z,65.56
2019-05-07T06:18:18.848Z,65.60
2019-05-07T06:21:52.607Z,65.05
2019-05-07T06:25:19.061Z,64.70
2019-05-07T06:28:42.624Z,65.33
2019-05-07T06:32:07.810Z,64.74
2019-05-07T06:35:32.483Z,66.64
2019-05-07T06:39:03.481Z,64.43
2019-05-07T06:42:52.246Z,64.52
2019-05-07T06:46:15.318Z,64.33
2019-05-07T06:49:38.583Z,63.29
2019-05-07T06:53:02.657Z,62.66
2019-05-07T06:56:26.129Z,61.40
2019-05-07T06:59:53.415Z,61.37
2019-05-07T07:03:26.439Z,60.76
2019-05-07T07:07:26.162Z,61.41
2019-05-07T07:10:59.438Z,59.87
2019-05-07T07:14:22.854Z,61.38
2019-05-07T07:17:45.926Z,60.66
2019-05-07T07:21:09.141Z,60.98
2019-05-07T07:24:33.011Z,60.61
2019-05-07T07:27:56.267Z,60.34
2019-05-07T07:35:23.649Z,59.63
2019-05-07T07:38:46.905Z,58.93
2019-05-07T07:42:12.366Z,58.71
2019-05-07T07:45:35.730Z,58.08
2019-05-07T07:49:07.840Z,56.33
2019-05-07T07:52:23.807Z,57.16
2019-05-07T07:56:05.337Z,55.63
2019-05-07T07:59:52.920Z,56.29
2019-05-07T08:03:16.105Z,56.48
2019-05-07T08:06:41.807Z,57.11
2019-05-07T08:10:05.454Z,57.37
2019-05-07T08:13:28.614Z,57.55
2019-05-07T08:16:52.847Z,55.78
2019-05-07T08:20:18.517Z,55.05
2019-05-07T08:23:42.371Z,52.96
2019-05-07T08:27:05.648Z,53.62
2019-05-07T08:30:32.632Z,52.57
2019-05-07T08:34:05.095Z,50.63
2019-05-07T08:37:28.192Z,49.84
2019-05-07T08:40:52.125Z,51.54
2019-05-07T08:44:18.909Z,49.99
2019-05-07T08:47:46.397Z,48.08
2019-05-07T08:51:11.786Z,49.22
2019-05-07T08:54:34.687Z,47.13
2019-05-07T08:57:57.786Z,46.15
2019-05-07T09:01:21.844Z,46.69
2019-05-07T09:04:45.110Z,45.85
2019-05-07T09:08:08.607Z,46.07
2019-05-07T09:11:32.057Z,48.75
2019-05-07T09:14:57.466Z,48.20
2019-05-07T09:18:22.895Z,46.99
2019-05-07T09:21:45.844Z,47.59
2019-05-07T09:25:09.130Z,46.80
2019-05-07T09:28:54.881Z,46.09
2019-05-07T09:32:29.046Z,46.12
2019-05-07T09:35:53.562Z,45.95
2019-05-07T09:39:17.058Z,45.58
2019-05-07T09:42:42.077Z,45.70
2019-05-07T09:46:05.064Z,47.11
2019-05-07T09:49:28.068Z,46.69
2019-05-07T09:52:51.820Z,44.17
2019-05-07T09:56:15.493Z,43.96
2019-05-07T09:59:38.530Z,43.51
2019-05-07T10:03:01.733Z,42.84
2019-05-07T10:06:27.605Z,42.99
2019-05-07T10:09:52.275Z,41.90
2019-05-07T10:13:41.998Z,42.23
2019-05-07T10:17:22.349Z,44.74
2019-05-07T10:20:45.380Z,44.76
2019-05-07T10:24:08.532Z,44.08
2019-05-07T10:27:32.422Z,49.17
2019-05-07T10:30:58.241Z,53.24
2019-05-07T10:34:22.833Z,55.94
2019-05-07T10:37:46.223Z,50.55
2019-05-07T10:41:12.161Z,53.83
2019-05-07T10:44:45.062Z,52.28
2019-05-07T10:48:36.843Z,49.91
2019-05-07T10:52:02.048Z,53.44
2019-05-07T10:55:27.242Z,48.77
2019-05-07T10:58:52.166Z,48.05
2019-05-07T11:02:21.954Z,46.21
2019-05-07T11:05:45.331Z,45.86
2019-05-07T11:09:08.462Z,44.87
2019-05-07T11:12:32.055Z,44.74
2019-05-07T11:16:05.438Z,45.69
2019-05-07T11:19:28.777Z,45.00
2019-05-07T11:22:52.300Z,43.49
2019-05-07T11:26:15.727Z,43.37
2019-05-07T11:29:38.770Z,44.31
2019-05-07T11:33:02.700Z,43.79
2019-05-07T11:36:28.929Z,41.11
2019-05-07T11:39:52.369Z,42.46
2019-05-07T11:43:33.913Z,43.12
2019-05-07T11:47:25.675Z,43.23
2019-05-07T11:51:03.743Z,42.17
2019-05-07T11:54:20.094Z,41.15
2019-05-07T11:57:44.414Z,41.98
2019-05-07T12:01:13.793Z,39.84
2019-05-07T12:04:36.823Z,38.11
2019-05-07T12:08:02.199Z,41.07
2019-05-07T12:11:25.183Z,38.52
2019-05-07T12:14:48.309Z,36.92
2019-05-07T12:18:12.682Z,36.55
2019-05-07T12:21:35.871Z,36.58
2019-05-07T12:24:58.984Z,36.65
2019-05-07T12:28:22.664Z,33.42
2019-05-07T12:32:08.116Z,35.68
2019-05-07T12:35:31.322Z,35.66
2019-05-07T12:38:55.820Z,34.21
2019-05-07T12:42:18.844Z,33.57
2019-05-07T12:45:42.312Z,30.36
2019-05-07T12:49:06.830Z,28.12
2019-05-07T12:52:49.450Z,28.04
2019-05-07T12:56:12.478Z,28.64
2019-05-07T12:59:35.606Z,27.13
2019-05-07T13:03:10.084Z,29.09
2019-05-07T13:06:36.791Z,30.95
2019-05-07T13:09:59.872Z,30.59
2019-05-07T13:13:23.009Z,30.14
2019-05-07T13:16:46.253Z,29.62
2019-05-07T13:20:09.651Z,30.37
2019-05-07T13:23:32.654Z,27.54
2019-05-07T13:26:55.854Z,27.45
2019-05-07T13:30:19.552Z,28.82
2019-05-07T13:33:43.641Z,29.41
2019-05-07T13:37:12.787Z,27.68
2019-05-07T13:40:54.727Z,27.87
2019-05-07T13:44:31.901Z,26.74
2019-05-07T13:48:23.348Z,28.51
2019-05-07T13:52:02.533Z,27.73
2019-05-07T13:55:13.567Z,28.69
2019-05-07T13:58:36.531Z,29.34
2019-05-07T14:02:06.980Z,30.11
2019-05-07T14:05:32.244Z,32.99
2019-05-07T14:08:56.718Z,34.88
2019-05-07T14:12:20.122Z,34.12
2019-05-07T14:16:02.942Z,34.32
2019-05-07T14:19:26.684Z,35.12
2019-05-07T14:22:51.710Z,37.08
2019-05-07T14:26:15.213Z,37.43
2019-05-07T14:29:38.641Z,37.76
2019-05-07T14:33:12.409Z,38.48
2019-05-07T14:36:45.787Z,38.08
2019-05-07T14:40:12.754Z,38.80
2019-05-07T14:43:41.928Z,38.49
2019-05-07T14:47:05.389Z,37.70
2019-05-07T14:50:28.863Z,38.81
2019-05-07T14:53:52.402Z,38.48
2019-05-07T14:57:15.965Z,38.44
2019-05-07T15:00:39.616Z,36.86
2019-05-07T15:04:03.469Z,37.00
2019-05-07T15:07:28.418Z,36.20
2019-05-07T15:10:52.514Z,36.45
2019-05-07T15:14:15.794Z,34.95
2019-05-07T15:17:45.554Z,35.57
2019-05-07T15:21:12.325Z,36.09
2019-05-07T15:24:36.943Z,36.41
2019-05-07T15:28:01.810Z,33.83
2019-05-07T15:31:43.383Z,33.16
2019-05-07T15:35:07.050Z,31.81
2019-05-07T15:38:32.410Z,32.85
2019-05-07T15:41:55.922Z,32.94
2019-05-07T15:45:19.066Z,30.89
2019-05-07T15:48:42.138Z,29.60
2019-05-07T15:52:12.438Z,24.05
2019-05-07T15:55:35.800Z,24.05
2019-05-07T15:59:09.765Z,24.97
2019-05-07T16:03:29.226Z,27.01
2019-05-07T16:08:08.168Z,29.40
2019-05-07T16:16:19.404Z,25.15
2019-05-07T16:19:44.532Z,24.40
2019-05-07T16:23:14.718Z,21.25
2019-05-07T16:26:54.192Z,22.05
2019-05-07T16:30:40.280Z,24.77
2019-05-07T16:34:03.811Z,28.38
2019-05-07T16:37:26.949Z,30.35
2019-05-07T16:40:52.028Z,30.61
2019-05-07T16:44:15.123Z,32.46
2019-05-07T16:47:38.155Z,33.48
2019-05-07T16:51:02.348Z,32.09
2019-05-07T16:54:25.828Z,33.83
2019-05-07T16:58:03.150Z,34.52
2019-05-07T17:01:26.329Z,34.70
2019-05-07T17:05:06.039Z,36.37
2019-05-07T17:08:55.924Z,37.01
2019-05-07T17:12:21.949Z,100.00
2019-05-07T17:15:55.194Z,35.09
2019-05-07T17:19:18.661Z,34.72
2019-05-07T17:22:42.709Z,35.95
2019-05-07T17:26:06.124Z,36.56
2019-05-07T17:29:29.317Z,35.63
2019-05-07T17:32:52.918Z,35.78
2019-05-07T17:36:16.002Z,36.24
2019-05-07T17:39:39.163Z,37.46
2019-05-07T17:43:03.124Z,38.13
2019-05-07T17:46:26.948Z,36.68
2019-05-07T17:49:52.530Z,38.37
2019-05-07T17:53:15.460Z,38.05
2019-05-07T17:56:38.928Z,40.24
2019-05-07T18:00:02.367Z,36.39
2019-05-07T18:03:32.984Z,39.81
2019-05-07T18:07:00.413Z,37.35
2019-05-07T18:10:23.531Z,38.77
2019-05-07T18:13:46.700Z,40.64
2019-05-07T18:17:29.668Z,41.52
2019-05-07T18:20:52.955Z,41.19
2019-05-07T18:24:16.903Z,38.27
2019-05-07T18:27:42.051Z,40.85
2019-05-07T18:35:03.714Z,42.77
2019-05-07T18:38:27.197Z,49.40
2019-05-07T18:41:52.148Z,48.84
2019-05-07T18:45:17.962Z,49.26
2019-05-07T18:48:42.694Z,49.14
2019-05-07T18:52:06.122Z,45.21
2019-05-07T18:55:30.015Z,48.96
2019-05-07T18:58:53.235Z,50.41
2019-05-07T19:02:16.885Z,51.44
2019-05-07T19:05:42.290Z,50.95
2019-05-07T19:09:08.007Z,52.76
2019-05-07T19:12:36.423Z,52.37
2019-05-07T19:16:00.126Z,53.13
2019-05-07T19:19:23.506Z,53.47
2019-05-07T19:22:53.205Z,53.02
2019-05-07T19:26:21.101Z,53.33
2019-05-07T19:29:46.950Z,55.25
2019-05-07T19:33:12.160Z,55.39
2019-05-07T19:36:36.964Z,56.62
2019-05-07T19:40:02.042Z,56.84
2019-05-07T19:43:26.749Z,57.27
2019-05-07T19:46:52.455Z,57.55
2019-05-07T19:50:18.643Z,57.51
2019-05-07T19:53:42.125Z,57.99
2019-05-07T19:57:06.022Z,58.43
2019-05-07T20:00:29.651Z,59.36
2019-05-07T20:03:53.337Z,59.34
2019-05-07T20:07:19.468Z,59.00
2019-05-07T20:10:54.824Z,58.57
2019-05-07T20:14:22.269Z,57.69
2019-05-07T20:17:45.705Z,58.18
2019-05-07T20:21:08.922Z,57.90
2019-05-07T20:24:33.000Z,58.00
2019-05-07T20:27:56.643Z,58.29
2019-05-07T20:31:22.671Z,59.04
2019-05-07T20:34:48.809Z,57.14
2019-05-07T20:38:12.642Z,56.75
2019-05-07T20:41:35.903Z,57.20
2019-05-07T20:44:59.227Z,57.61
2019-05-07T20:48:22.771Z,58.35
2019-05-07T20:51:45.985Z,59.40
2019-05-07T20:55:35.988Z,59.14
2019-05-07T20:58:59.138Z,59.79
2019-05-07T21:02:22.818Z,59.94
2019-05-07T21:05:48.951Z,59.61
2019-05-07T21:09:12.773Z,60.19
2019-05-07T21:12:37.390Z,59.50
2019-05-07T21:16:03.059Z,58.39
2019-05-07T21:19:26.158Z,58.39
2019-05-07T21:22:49.331Z,58.70
2019-05-07T21:26:13.264Z,58.98
2019-05-07T21:29:36.746Z,58.51
2019-05-07T21:32:59.903Z,58.84
2019-05-07T21:36:23.031Z,59.31
2019-05-07T21:39:46.155Z,59.48
2019-05-07T21:43:12.042Z,60.17
2019-05-07T21:46:35.518Z,59.56
2019-05-07T21:49:58.591Z,58.94
2019-05-07T21:53:27.639Z,58.04
2019-05-07T21:57:12.651Z,58.20
2019-05-07T22:01:02.058Z,57.80
2019-05-07T22:04:26.483Z,57.03
2019-05-07T22:07:49.740Z,58.10
2019-05-07T22:11:26.012Z,57.72
2019-05-07T22:14:49.188Z,56.34
2019-05-07T22:18:12.319Z,56.34
2019-05-07T22:21:35.539Z,56.14
2019-05-07T22:25:04.939Z,56.25
2019-05-07T22:28:28.008Z,56.49
2019-05-07T22:32:04.173Z,55.96
2019-05-07T22:35:39.452Z,56.02
2019-05-07T22:39:16.864Z,55.66
2019-05-07T22:42:41.889Z,54.72
2019-05-07T22:46:05.035Z,55.20
2019-05-07T22:49:28.185Z,55.34
2019-05-07T22:52:52.529Z,54.86
2019-05-07T22:56:30.421Z,55.55
2019-05-07T22:59:43.310Z,56.19
2019-05-07T23:03:06.492Z,56.29
2019-05-07T23:06:29.966Z,54.56
2019-05-07T23:09:53.091Z,55.48
2019-05-07T23:13:17.317Z,55.53
2019-05-07T23:16:40.422Z,55.28
2019-05-07T23:20:03.701Z,54.65
2019-05-07T23:23:26.720Z,54.90
2019-05-07T23:26:51.177Z,54.96
2019-05-07T23:30:15.181Z,54.95
2019-05-07T23:33:38.297Z,54.33
2019-05-07T23:37:02.506Z,54.93
2019-05-07T23:40:48.135Z,54.13
2019-05-07T23:44:18.165Z,54.36
2019-05-07T23:47:44.420Z,54.36
2019-05-07T23:51:07.069Z,55.48
2019-05-07T23:54:31.879Z,54.62
2019-05-07T23:57:55.132Z,54.17
